Time;durP1;ratioP1;P1;durP2;ratioP2;P2;SDS_P1;SDS_P2;PMS_P1;PMS_P2;Temp;Humidity;BMP_temperature;BMP_pressure;BME280_temperature;BME280_humidity;BME280_pressure;Samples;Min_cycle;Max_cycle;Signal;HPM_P1;HPM_P2
2023/06/05 00:00:17;;;;;;;6.30;2.90;;;18.20;58.90;;;;;;6059975;23;20471;-64
2023/06/05 00:02:44;;;;;;;2.33;2.13;;;18.20;59.00;;;;;;6060881;23;20511;-65
2023/06/05 00:05:11;;;;;;;2.70;2.50;;;18.20;59.10;;;;;;6043312;23;20487;-65
2023/06/05 00:07:38;;;;;;;3.07;2.67;;;18.30;59.10;;;;;;6059975;23;20447;-65
2023/06/05 00:10:09;;;;;;;2.97;2.67;;;18.30;59.10;;;;;;6061018;23;20584;-65
2023/06/05 00:12:36;;;;;;;2.80;2.60;;;18.30;59.20;;;;;;6059006;23;20514;-65
2023/06/05 00:15:04;;;;;;;3.70;2.70;;;18.20;59.30;;;;;;6049677;23;20480;-65
2023/06/05 00:17:31;;;;;;;2.80;2.60;;;18.20;59.60;;;;;;6056180;23;20449;-65
2023/06/05 00:19:59;;;;;;;2.60;2.40;;;18.20;59.80;;;;;;6058841;23;20529;-65
2023/06/05 00:22:27;;;;;;;2.73;2.53;;;18.10;59.90;;;;;;6046233;23;20443;-67
2023/06/05 00:24:54;;;;;;;3.40;2.90;;;18.10;60.00;;;;;;6054269;23;20860;-65
2023/06/05 00:27:22;;;;;;;2.43;2.23;;;18.10;59.90;;;;;;6059665;23;20526;-65
2023/06/05 00:29:49;;;;;;;4.63;2.70;;;18.10;60.20;;;;;;6061824;23;20520;-65
2023/06/05 00:32:17;;;;;;;3.73;2.67;;;18.00;60.20;;;;;;6050948;23;20856;-65
2023/06/05 00:34:44;;;;;;;2.80;2.60;;;18.00;60.40;;;;;;6059076;23;20465;-65
2023/06/05 00:37:11;;;;;;;2.63;2.43;;;18.00;60.40;;;;;;6056045;23;20518;-65
2023/06/05 00:39:38;;;;;;;2.50;2.30;;;18.10;60.40;;;;;;6038314;23;20431;-65
2023/06/05 00:42:06;;;;;;;3.77;2.33;;;18.00;60.30;;;;;;6060046;23;20978;-65
2023/06/05 00:44:34;;;;;;;2.90;2.60;;;18.00;60.30;;;;;;6061291;23;20450;-65
2023/06/05 00:47:02;;;;;;;2.67;2.47;;;18.00;60.30;;;;;;6059598;23;20447;-65
2023/06/05 00:49:30;;;;;;;2.63;2.20;;;18.00;60.30;;;;;;6058884;23;20993;-65
2023/06/05 00:51:58;;;;;;;3.63;3.00;;;18.00;60.20;;;;;;6061775;23;21309;-64
2023/06/05 00:54:25;;;;;;;3.43;2.30;;;18.10;60.40;;;;;;6051670;23;20555;-64
2023/06/05 00:56:53;;;;;;;2.90;2.40;;;18.10;60.30;;;;;;6048635;23;20948;-64
2023/06/05 00:59:20;;;;;;;3.73;2.43;;;18.10;60.30;;;;;;6051652;23;20589;-64
2023/06/05 01:01:50;;;;;;;3.30;2.17;;;18.10;60.20;;;;;;6061410;23;21000;-65
2023/06/05 01:04:17;;;;;;;2.67;2.10;;;18.10;60.30;;;;;;6059233;23;20464;-65
2023/06/05 01:06:45;;;;;;;3.27;2.20;;;18.30;60.50;;;;;;6059858;23;20485;-65
2023/06/05 01:09:13;;;;;;;2.70;2.50;;;18.10;60.30;;;;;;6060723;23;20910;-65
2023/06/05 01:11:46;;;;;;;3.27;2.50;;;18.00;60.60;;;;;;6054451;23;20506;-65
2023/06/05 01:14:20;;;;;;;2.67;2.20;;;18.00;60.80;;;;;;6036970;23;20544;-65
2023/06/05 01:16:53;;;;;;;3.73;2.60;;;18.00;61.10;;;;;;6058815;23;20470;-65
2023/06/05 01:19:24;;;;;;;2.40;2.20;;;17.90;61.40;;;;;;6041466;23;20480;-65
2023/06/05 01:21:51;;;;;;;2.43;2.23;;;17.90;61.70;;;;;;6061601;23;21191;-65
2023/06/05 01:24:22;;;;;;;3.07;2.87;;;17.80;61.70;;;;;;6060462;23;20978;-65
2023/06/05 01:27:02;;;;;;;4.40;2.77;;;17.70;62.10;;;;;;6057874;23;20439;-65
2023/06/05 01:29:35;;;;;;;2.37;2.17;;;17.70;62.40;;;;;;6057581;23;20466;-65
2023/06/05 01:32:07;;;;;;;3.03;2.70;;;17.60;62.50;;;;;;6050176;23;20436;-65
2023/06/05 01:34:36;;;;;;;2.80;2.60;;;17.60;62.90;;;;;;6055345;23;20499;-64
2023/06/05 01:37:08;;;;;;;2.43;2.23;;;17.50;63.00;;;;;;6061045;23;20985;-64
2023/06/05 01:39:38;;;;;;;2.60;2.40;;;17.50;63.20;;;;;;6060117;23;20439;-65
2023/06/05 01:42:06;;;;;;;2.60;2.40;;;17.50;63.40;;;;;;6052615;23;20455;-65
2023/06/05 01:44:33;;;;;;;2.67;2.47;;;17.50;63.60;;;;;;6056969;23;20471;-64
2023/06/05 01:47:01;;;;;;;2.77;2.57;;;17.50;63.40;;;;;;6060413;23;20453;-65
2023/06/05 01:49:28;;;;;;;2.33;2.23;;;17.50;64.10;;;;;;6043968;23;20891;-65
2023/06/05 01:51:55;;;;;;;2.63;2.40;;;17.50;63.60;;;;;;6046866;23;21007;-65
2023/06/05 01:54:23;;;;;;;3.33;2.40;;;17.50;63.70;;;;;;6058321;23;20478;-65
2023/06/05 01:56:52;;;;;;;3.17;2.87;;;17.60;64.00;;;;;;6060289;23;20447;-65
2023/06/05 01:59:19;;;;;;;3.17;2.97;;;17.50;63.80;;;;;;6062295;23;20493;-65
2023/06/05 02:01:46;;;;;;;4.00;2.63;;;17.50;63.80;;;;;;6057957;23;20443;-65
2023/06/05 02:04:18;;;;;;;3.63;2.83;;;17.50;64.00;;;;;;6062324;23;20527;-65
2023/06/05 02:06:46;;;;;;;2.73;2.50;;;17.40;64.30;;;;;;6034930;23;20459;-65
2023/06/05 02:09:13;;;;;;;2.87;2.50;;;17.30;64.40;;;;;;6049342;22;20518;-72
2023/06/05 02:11:42;;;;;;;2.57;2.37;;;17.30;64.60;;;;;;6020623;23;21007;-72
2023/06/05 02:14:12;;;;;;;2.87;2.67;;;17.50;65.00;;;;;;6015971;23;21232;-72
2023/06/05 02:16:41;;;;;;;3.03;2.73;;;17.20;65.00;;;;;;6033426;23;20463;-72
2023/06/05 02:19:08;;;;;;;2.40;2.20;;;17.20;65.20;;;;;;6032354;23;20445;-72
2023/06/05 02:21:35;;;;;;;2.50;2.30;;;17.20;65.70;;;;;;6035946;23;20523;-72
2023/06/05 02:24:03;;;;;;;2.67;2.47;;;17.10;65.80;;;;;;6033355;23;20440;-72
2023/06/05 02:26:30;;;;;;;2.70;2.50;;;17.10;65.90;;;;;;6029448;23;20510;-72
2023/06/05 02:28:57;;;;;;;2.77;2.50;;;17.00;66.10;;;;;;6026098;23;20525;-73
2023/06/05 02:31:28;;;;;;;2.90;2.47;;;17.00;66.20;;;;;;6027119;23;20470;-72
2023/06/05 02:33:56;;;;;;;3.00;2.70;;;17.00;66.40;;;;;;6032207;23;20460;-72
2023/06/05 02:36:24;;;;;;;2.77;2.57;;;17.00;66.80;;;;;;6036088;23;20440;-72
2023/06/05 02:38:52;;;;;;;3.10;2.83;;;16.90;67.00;;;;;;6028917;23;20456;-72
2023/06/05 02:41:21;;;;;;;4.23;2.80;;;16.80;67.30;;;;;;6023254;23;20451;-71
2023/06/05 02:43:48;;;;;;;3.37;2.83;;;16.80;67.70;;;;;;6045207;23;20522;-71
2023/06/05 02:46:15;;;;;;;2.70;2.50;;;16.70;67.90;;;;;;6039757;23;20536;-72
2023/06/05 02:48:43;;;;;;;2.93;2.70;;;16.60;68.10;;;;;;6035877;23;20610;-72
2023/06/05 02:51:10;;;;;;;3.93;2.83;;;16.50;68.20;;;;;;6043369;23;20554;-71
2023/06/05 02:53:38;;;;;;;2.80;2.30;;;16.40;68.40;;;;;;6056654;23;20526;-71
2023/06/05 02:56:05;;;;;;;3.43;2.93;;;16.30;68.90;;;;;;6045186;23;20444;-71
2023/06/05 02:58:33;;;;;;;3.63;3.07;;;16.20;69.40;;;;;;6023218;23;20446;-71
2023/06/05 03:01:01;;;;;;;3.10;2.80;;;16.10;69.80;;;;;;6033711;23;20544;-72
2023/06/05 03:03:30;;;;;;;3.57;2.90;;;16.10;70.10;;;;;;6012633;23;20437;-71
2023/06/05 03:06:04;;;;;;;4.17;2.77;;;16.00;70.10;;;;;;6012473;23;20521;-71
2023/06/05 03:08:32;;;;;;;3.13;2.83;;;16.10;70.40;;;;;;6032655;23;20447;-71
2023/06/05 03:11:00;;;;;;;3.60;3.03;;;16.00;70.30;;;;;;6048100;23;20476;-71
2023/06/05 03:13:27;;;;;;;2.73;2.53;;;16.00;70.60;;;;;;6029415;23;20446;-71
2023/06/05 03:15:56;;;;;;;3.60;2.60;;;15.90;70.90;;;;;;6032851;23;20522;-72
2023/06/05 03:18:25;;;;;;;2.60;2.40;;;15.80;71.30;;;;;;6050103;23;20449;-72
2023/06/05 03:20:54;;;;;;;2.67;2.47;;;15.80;71.40;;;;;;6028532;23;20440;-71
2023/06/05 03:23:24;;;;;;;3.63;2.30;;;15.80;71.80;;;;;;6030952;23;21016;-72
2023/06/05 03:25:52;;;;;;;2.77;2.53;;;15.80;71.80;;;;;;6022409;23;20967;-71
2023/06/05 03:28:19;;;;;;;2.90;2.47;;;15.90;71.80;;;;;;6029207;23;20958;-72
2023/06/05 03:30:47;;;;;;;3.40;2.50;;;16.00;71.80;;;;;;6033156;23;20476;-72
2023/06/05 03:33:14;;;;;;;2.30;2.10;;;16.00;71.70;;;;;;6041124;23;20494;-72
2023/06/05 03:35:42;;;;;;;2.70;2.50;;;16.00;71.80;;;;;;6032713;23;20460;-72
2023/06/05 03:38:10;;;;;;;2.93;2.67;;;16.10;71.90;;;;;;6035459;23;20499;-72
2023/06/05 03:40:39;;;;;;;2.70;2.50;;;16.10;72.10;;;;;;6039461;23;20449;-72
2023/06/05 03:43:06;;;;;;;2.83;2.53;;;16.10;72.20;;;;;;6023162;23;20473;-72
2023/06/05 03:45:36;;;;;;;3.07;2.53;;;16.10;72.20;;;;;;6033869;23;21022;-71
2023/06/05 03:48:03;;;;;;;4.27;2.40;;;16.10;72.20;;;;;;6028031;23;20436;-72
2023/06/05 03:50:30;;;;;;;5.00;2.70;;;16.10;72.40;;;;;;6036733;23;20502;-72
2023/06/05 03:53:02;;;;;;;3.07;2.50;;;16.10;72.60;;;;;;6034004;23;21035;-72
2023/06/05 03:55:40;;;;;;;3.93;2.77;;;16.10;72.80;;;;;;6035773;23;22245;-72
2023/06/05 03:58:14;;;;;;;3.17;2.87;;;16.10;73.00;;;;;;6031983;23;20440;-72
2023/06/05 04:00:42;;;;;;;2.77;2.57;;;16.10;73.40;;;;;;6016600;23;20436;-72
2023/06/05 04:03:10;;;;;;;4.03;2.63;;;16.10;73.50;;;;;;6031376;23;20447;-75
2023/06/05 04:05:38;;;;;;;3.10;2.80;;;16.10;74.00;;;;;;6021610;23;20529;-76
2023/06/05 04:08:05;;;;;;;2.77;2.57;;;16.00;74.20;;;;;;6030855;23;20463;-74
2023/06/05 04:10:32;;;;;;;2.57;2.37;;;16.00;74.50;;;;;;6030539;23;20607;-75
2023/06/05 04:12:59;;;;;;;4.13;2.90;;;16.00;74.60;;;;;;6031289;23;20440;-75
2023/06/05 04:15:29;;;;;;;3.53;2.57;;;16.10;74.90;;;;;;6015558;23;20536;-75
2023/06/05 04:17:57;;;;;;;3.20;2.80;;;15.90;75.20;;;;;;6028959;23;20784;-75
2023/06/05 04:20:24;;;;;;;3.17;2.70;;;15.90;75.50;;;;;;6027321;23;20437;-75
2023/06/05 04:22:51;;;;;;;2.70;2.50;;;15.90;75.30;;;;;;6033222;23;20490;-76
2023/06/05 04:25:18;;;;;;;3.30;2.63;;;15.90;75.60;;;;;;6036082;23;20452;-75
2023/06/05 04:27:48;;;;;;;3.10;2.70;;;15.90;75.80;;;;;;6033801;23;20528;-75
2023/06/05 04:30:15;;;;;;;3.07;2.60;;;15.80;75.90;;;;;;6050209;23;21029;-75
2023/06/05 04:32:54;;;;;;;2.90;2.60;;;15.90;75.90;;;;;;6032461;23;20535;-75
2023/06/05 04:35:22;;;;;;;3.53;2.63;;;15.90;75.70;;;;;;6032467;23;20459;-82
2023/06/05 04:37:50;;;;;;;2.77;2.53;;;15.90;75.90;;;;;;6029372;23;20808;-79
2023/06/05 04:40:20;;;;;;;3.00;2.70;;;15.90;76.00;;;;;;6045904;23;20489;-80
2023/06/05 04:42:47;;;;;;;2.60;2.40;;;16.00;76.10;;;;;;6042260;23;20937;-79
2023/06/05 04:45:16;;;;;;;3.93;2.63;;;16.00;76.00;;;;;;6033957;23;20463;-80
2023/06/05 04:47:45;;;;;;;2.73;2.53;;;16.00;75.80;;;;;;6033032;23;20486;-80
2023/06/05 04:50:24;;;;;;;2.70;2.50;;;16.10;76.00;;;;;;6031064;23;20770;-80
2023/06/05 04:52:53;;;;;;;2.77;2.47;;;16.10;76.10;;;;;;6032816;23;20796;-80
2023/06/05 04:55:20;;;;;;;2.90;2.60;;;16.20;76.20;;;;;;6022893;23;21031;-79
2023/06/05 04:57:48;;;;;;;3.70;2.40;;;16.40;76.10;;;;;;6033574;23;20467;-80
2023/06/05 05:00:15;;;;;;;2.70;2.50;;;16.20;75.80;;;;;;6036414;23;20443;-81
2023/06/05 05:02:44;;;;;;;3.70;2.60;;;16.30;75.70;;;;;;6033075;23;20436;-81
2023/06/05 05:05:13;;;;;;;3.23;2.50;;;16.30;75.50;;;;;;6023968;23;20532;-80
2023/06/05 05:07:41;;;;;;;2.63;2.43;;;16.50;75.70;;;;;;6054762;23;20443;-80
2023/06/05 05:10:09;;;;;;;3.40;2.50;;;16.40;75.50;;;;;;6035209;23;20447;-82
2023/06/05 05:12:37;;;;;;;2.40;2.20;;;16.50;75.30;;;;;;6039426;23;21065;-80
2023/06/05 05:15:05;;;;;;;3.70;2.70;;;16.50;75.30;;;;;;6022316;23;20460;-78
2023/06/05 05:17:33;;;;;;;3.33;2.43;;;16.50;75.60;;;;;;6031937;23;20436;-82
2023/06/05 05:20:01;;;;;;;2.90;2.60;;;16.60;75.30;;;;;;6028680;23;20435;-81
2023/06/05 05:22:34;;;;;;;2.73;2.50;;;16.70;75.40;;;;;;6041795;23;20460;-81
2023/06/05 05:25:02;;;;;;;2.87;2.47;;;16.70;75.40;;;;;;6027089;23;20491;-81
2023/06/05 05:27:29;;;;;;;3.13;2.67;;;17.10;75.80;;;;;;6036292;23;20451;-81
2023/06/05 05:29:56;;;;;;;5.03;2.63;;;16.90;75.30;;;;;;6037090;23;20506;-75
2023/06/05 05:32:23;;;;;;;3.03;2.73;;;16.90;75.10;;;;;;6029149;23;20476;-76
2023/06/05 05:34:51;;;;;;;2.67;2.43;;;16.90;75.00;;;;;;6034142;23;20579;-81
2023/06/05 05:37:20;;;;;;;3.63;3.20;;;17.00;75.20;;;;;;6053127;23;20431;-81
2023/06/05 05:39:47;;;;;;;3.10;2.80;;;17.00;74.90;;;;;;6046676;23;20433;-81
2023/06/05 05:42:15;;;;;;;3.30;2.50;;;17.10;75.00;;;;;;6029292;23;20511;-81
2023/06/05 05:44:43;;;;;;;3.40;3.17;;;17.10;75.10;;;;;;6031917;23;20452;-81
2023/06/05 05:47:11;;;;;;;3.23;2.90;;;17.10;75.00;;;;;;6023755;23;20451;-82
2023/06/05 05:49:38;;;;;;;2.80;2.60;;;17.20;74.70;;;;;;6025591;23;20451;-84
2023/06/05 05:52:05;;;;;;;3.20;2.80;;;17.30;74.60;;;;;;6013154;23;20510;-81
2023/06/05 05:54:34;;;;;;;3.40;3.07;;;17.40;75.10;;;;;;6008970;23;20487;-80
2023/06/05 05:57:01;;;;;;;3.73;2.57;;;17.40;74.50;;;;;;6019996;23;20936;-81
2023/06/05 05:59:28;;;;;;;2.70;2.33;;;17.50;74.50;;;;;;6018368;23;20511;-81
2023/06/05 06:01:58;;;;;;;3.27;2.97;;;17.50;74.50;;;;;;6009312;23;20601;-81
2023/06/05 06:04:26;;;;;;;4.07;3.07;;;17.60;74.60;;;;;;6020160;23;20468;-81
2023/06/05 06:06:56;;;;;;;2.80;2.60;;;17.70;74.30;;;;;;6019607;23;20475;-80
2023/06/05 06:09:24;;;;;;;4.10;3.10;;;17.70;74.00;;;;;;6014492;23;20450;-81
2023/06/05 06:11:55;;;;;;;2.80;2.60;;;17.80;73.50;;;;;;6026801;23;20471;-81
2023/06/05 06:14:22;;;;;;;2.90;2.50;;;17.90;73.00;;;;;;6028872;23;20467;-80
2023/06/05 06:16:50;;;;;;;2.73;2.53;;;17.90;73.20;;;;;;6029534;23;20440;-81
2023/06/05 06:19:22;;;;;;;4.00;3.13;;;18.00;73.60;;;;;;6036156;23;20440;-81
2023/06/05 06:21:52;;;;;;;4.53;3.27;;;18.00;73.60;;;;;;6044436;23;20577;-80
2023/06/05 06:24:21;;;;;;;4.57;3.30;;;18.10;73.70;;;;;;6021316;23;20463;-81
2023/06/05 06:26:48;;;;;;;3.70;3.07;;;18.20;73.70;;;;;;6030457;23;20451;-80
2023/06/05 06:29:20;;;;;;;3.73;3.30;;;18.30;73.40;;;;;;6033063;23;20639;-80
2023/06/05 06:31:47;;;;;;;3.70;2.63;;;18.30;73.20;;;;;;6026540;23;20970;-80
2023/06/05 06:34:14;;;;;;;2.70;2.50;;;18.40;73.40;;;;;;6031494;23;20472;-81
2023/06/05 06:36:43;;;;;;;3.80;3.00;;;18.50;73.20;;;;;;6023402;23;20464;-81
2023/06/05 06:39:11;;;;;;;4.50;2.53;;;18.70;73.70;;;;;;6031598;23;20432;-81
2023/06/05 06:41:38;;;;;;;4.53;2.47;;;18.80;73.80;;;;;;6030682;23;20805;-80
2023/06/05 06:44:05;;;;;;;2.30;2.10;;;19.00;71.80;;;;;;6023892;23;20468;-81
2023/06/05 06:46:34;;;;;;;2.93;2.63;;;19.00;70.10;;;;;;6041803;23;20447;-81
2023/06/05 06:49:01;;;;;;;5.90;2.80;;;19.00;70.30;;;;;;6054912;23;20460;-81
2023/06/05 06:51:28;;;;;;;3.13;2.83;;;19.20;70.80;;;;;;6037337;23;20471;-81
2023/06/05 06:53:56;;;;;;;2.77;2.43;;;19.30;71.00;;;;;;6015346;23;20975;-81
2023/06/05 06:56:23;;;;;;;3.40;3.10;;;19.40;69.60;;;;;;6029862;23;20490;-82
2023/06/05 06:58:50;;;;;;;3.60;3.17;;;19.50;69.50;;;;;;6019445;23;20526;-81
2023/06/05 07:01:19;;;;;;;3.30;2.80;;;19.70;68.20;;;;;;6029332;23;20886;-81
2023/06/05 07:03:48;;;;;;;3.10;2.60;;;19.80;66.70;;;;;;6005979;23;20488;-81
2023/06/05 07:06:15;;;;;;;5.80;3.17;;;19.80;67.00;;;;;;6008224;23;20466;-80
2023/06/05 07:08:42;;;;;;;3.10;2.80;;;19.90;66.40;;;;;;6021385;23;20968;-81
2023/06/05 07:11:09;;;;;;;3.43;3.13;;;19.90;66.90;;;;;;6019952;23;20520;-80
2023/06/05 07:13:37;;;;;;;4.63;3.20;;;19.80;67.00;;;;;;6012424;23;20546;-78
2023/06/05 07:16:04;;;;;;;2.80;2.50;;;19.80;67.50;;;;;;6021157;23;20448;-81
2023/06/05 07:18:31;;;;;;;3.20;2.90;;;20.00;67.70;;;;;;6021412;23;20450;-81
2023/06/05 07:20:59;;;;;;;3.20;3.00;;;20.10;67.70;;;;;;6020612;23;21413;-82
2023/06/05 07:23:27;;;;;;;4.33;3.67;;;20.30;67.20;;;;;;6011970;23;21014;-81
2023/06/05 07:25:54;;;;;;;3.83;3.40;;;20.50;66.30;;;;;;6026833;23;20446;-81
2023/06/05 07:28:21;;;;;;;7.37;3.30;;;20.60;66.50;;;;;;6020607;23;20486;-80
2023/06/05 07:30:50;;;;;;;4.10;3.63;;;20.70;67.60;;;;;;6022908;23;20472;-81
2023/06/05 07:33:17;;;;;;;3.63;3.33;;;21.00;67.80;;;;;;6026906;23;20464;-84
2023/06/05 07:35:45;;;;;;;7.10;3.70;;;21.30;67.80;;;;;;6021198;23;20450;-81
2023/06/05 07:38:13;;;;;;;3.40;2.90;;;21.60;67.00;;;;;;6019201;23;20437;-83
2023/06/05 07:40:40;;;;;;;4.60;3.37;;;21.80;66.90;;;;;;6029532;23;20940;-80
2023/06/05 07:43:12;;;;;;;3.37;3.17;;;21.80;66.90;;;;;;6029030;23;20535;-80
2023/06/05 07:45:40;;;;;;;3.83;3.53;;;21.80;66.60;;;;;;6033965;23;20440;-81
2023/06/05 07:48:07;;;;;;;3.77;3.50;;;22.00;67.80;;;;;;6027718;23;20432;-80
2023/06/05 07:50:34;;;;;;;3.50;3.17;;;22.30;67.00;;;;;;6023999;23;20531;-80
2023/06/05 07:53:02;;;;;;;5.87;3.57;;;22.50;66.80;;;;;;6038928;23;20468;-81
2023/06/05 07:55:30;;;;;;;3.57;3.37;;;22.90;66.60;;;;;;6029272;23;20511;-81
2023/06/05 07:57:57;;;;;;;3.83;3.53;;;23.20;65.90;;;;;;6043470;23;20520;-81
2023/06/05 08:00:26;;;;;;;5.37;3.67;;;23.60;65.50;;;;;;6028818;23;20451;-80
2023/06/05 08:02:53;;;;;;;3.50;3.30;;;24.10;65.60;;;;;;6023343;23;20951;-81
2023/06/05 08:05:20;;;;;;;4.93;3.83;;;24.50;64.10;;;;;;6032624;23;20845;-81
2023/06/05 08:07:48;;;;;;;3.50;3.20;;;24.90;64.00;;;;;;6037791;23;20482;-81
2023/06/05 08:10:15;;;;;;;3.50;3.20;;;25.10;63.20;;;;;;6038350;23;20448;-81
2023/06/05 08:12:43;;;;;;;4.30;3.03;;;25.40;61.70;;;;;;6047500;23;21325;-75
2023/06/05 08:15:11;;;;;;;3.70;3.33;;;25.70;62.20;;;;;;6029625;23;20432;-77
2023/06/05 08:17:38;;;;;;;5.10;3.70;;;26.00;62.10;;;;;;6023872;23;20437;-76
2023/06/05 08:20:07;;;;;;;6.97;3.90;;;26.20;61.50;;;;;;6032875;23;20466;-77
2023/06/05 08:22:34;;;;;;;4.67;3.90;;;26.40;61.60;;;;;;6028653;23;20443;-77
2023/06/05 08:25:04;;;;;;;4.80;3.73;;;26.40;61.10;;;;;;6029918;23;21180;-78
2023/06/05 08:27:31;;;;;;;4.33;3.93;;;26.00;61.50;;;;;;6034472;23;21172;-77
2023/06/05 08:29:59;;;;;;;4.23;3.83;;;25.80;62.70;;;;;;6050991;23;20482;-77
2023/06/05 08:32:27;;;;;;;4.70;3.20;;;26.00;62.80;;;;;;6033649;23;20772;-78
2023/06/05 08:34:54;;;;;;;3.97;3.53;;;26.20;62.00;;;;;;6033324;23;20483;-78
2023/06/05 08:37:22;;;;;;;4.77;3.73;;;26.50;61.80;;;;;;6020085;23;20972;-78
2023/06/05 08:39:50;;;;;;;6.23;3.83;;;26.70;60.80;;;;;;6027364;23;20441;-78
2023/06/05 08:42:20;;;;;;;8.63;4.03;;;27.10;60.70;;;;;;6022797;23;20444;-76
2023/06/05 08:44:48;;;;;;;4.30;3.30;;;27.50;60.30;;;;;;6018432;23;20646;-77
2023/06/05 08:47:17;;;;;;;6.13;4.47;;;27.70;59.80;;;;;;6001117;23;21012;-76
2023/06/05 08:49:45;;;;;;;4.17;3.60;;;28.10;59.50;;;;;;6009733;23;20448;-76
2023/06/05 08:52:14;;;;;;;4.37;3.97;;;28.30;59.00;;;;;;6034932;23;20990;-77
2023/06/05 08:54:42;;;;;;;3.80;3.40;;;28.40;58.90;;;;;;6025589;23;20857;-78
2023/06/05 08:57:10;;;;;;;4.63;4.23;;;28.60;58.60;;;;;;6045506;23;20722;-77
2023/06/05 08:59:38;;;;;;;4.40;4.10;;;28.50;59.20;;;;;;6033960;23;20432;-77
2023/06/05 09:02:05;;;;;;;4.93;4.30;;;27.90;59.70;;;;;;6042179;23;20435;-77
2023/06/05 09:04:33;;;;;;;4.83;4.37;;;27.90;60.30;;;;;;6033693;23;20991;-78
2023/06/05 09:07:00;;;;;;;4.30;3.67;;;28.10;59.40;;;;;;6028557;23;20456;-78
2023/06/05 09:09:28;;;;;;;4.60;4.00;;;28.40;59.30;;;;;;6012443;23;20453;-78
2023/06/05 09:12:05;;;;;;;4.17;3.77;;;28.70;59.30;;;;;;6016640;23;20477;-76
2023/06/05 09:14:32;;;;;;;4.50;4.20;;;28.90;58.60;;;;;;6014185;23;20515;-77
2023/06/05 09:17:00;;;;;;;4.50;4.20;;;29.10;58.40;;;;;;6023556;23;20463;-75
2023/06/05 09:19:38;;;;;;;4.83;4.53;;;29.30;58.30;;;;;;6026021;23;20443;-77
2023/06/05 09:22:08;;;;;;;4.77;4.40;;;29.50;58.50;;;;;;6032241;23;20475;-77
2023/06/05 09:24:36;;;;;;;5.57;5.00;;;29.50;58.50;;;;;;6031205;23;20467;-78
2023/06/05 09:27:05;;;;;;;5.40;4.90;;;29.60;59.00;;;;;;6033720;23;20436;-78
2023/06/05 09:29:34;;;;;;;5.13;4.73;;;29.50;58.70;;;;;;6024358;23;20989;-77
2023/06/05 09:32:03;;;;;;;5.23;4.73;;;29.40;59.30;;;;;;6030654;23;20842;-77
2023/06/05 09:34:32;;;;;;;4.87;4.47;;;29.10;59.30;;;;;;6029848;23;20456;-77
2023/06/05 09:37:02;;;;;;;4.87;4.47;;;29.10;58.90;;;;;;6046969;23;20440;-77
2023/06/05 09:39:31;;;;;;;4.80;4.40;;;29.20;59.50;;;;;;6017434;23;20443;-77
2023/06/05 09:41:59;;;;;;;4.20;4.00;;;29.30;58.90;;;;;;6032412;23;20475;-77
2023/06/05 09:44:27;;;;;;;5.07;4.67;;;29.50;58.50;;;;;;6009314;23;21162;-77
2023/06/05 09:46:57;;;;;;;5.10;4.67;;;29.60;58.40;;;;;;6035293;23;20542;-78
2023/06/05 09:49:30;;;;;;;4.50;4.20;;;29.80;58.50;;;;;;6037756;23;21011;-78
2023/06/05 09:51:58;;;;;;;4.63;4.23;;;30.00;57.40;;;;;;6035442;23;20491;-78
2023/06/05 09:54:29;;;;;;;5.00;4.37;;;30.20;56.80;;;;;;6020620;23;20905;-77
2023/06/05 09:57:01;;;;;;;5.17;4.70;;;30.30;56.60;;;;;;6024666;23;20831;-78
2023/06/05 09:59:31;;;;;;;4.63;4.17;;;30.60;56.80;;;;;;6048574;23;20437;-78
2023/06/05 10:02:01;;;;;;;4.40;4.00;;;30.80;56.30;;;;;;6054151;23;20447;-77
2023/06/05 10:04:30;;;;;;;5.40;5.00;;;31.00;56.00;;;;;;6041379;23;21016;-77
2023/06/05 10:07:01;;;;;;;6.70;4.60;;;30.90;55.60;;;;;;6019828;23;20440;-78
2023/06/05 10:09:32;;;;;;;4.40;4.10;;;30.80;55.70;;;;;;6033678;23;20487;-78
2023/06/05 10:12:00;;;;;;;4.50;4.17;;;30.80;55.60;;;;;;6033514;23;20443;-77
2023/06/05 10:14:27;;;;;;;4.27;3.97;;;31.00;55.50;;;;;;6030159;23;20469;-77
2023/06/05 10:16:56;;;;;;;4.50;4.20;;;31.20;54.30;;;;;;6031454;23;20482;-77
2023/06/05 10:19:24;;;;;;;4.03;3.73;;;31.50;53.80;;;;;;6034679;23;20439;-76
2023/06/05 10:21:51;;;;;;;4.10;3.80;;;31.80;52.80;;;;;;6042590;23;20429;-76
2023/06/05 10:24:23;;;;;;;3.87;3.57;;;32.00;53.00;;;;;;6030845;23;20825;-77
2023/06/05 10:27:26;;;;;;;4.07;3.77;;;32.30;52.00;;;;;;6032935;23;20424;-77
2023/06/05 10:30:36;;;;;;;4.40;3.13;;;32.50;50.10;;;;;;6006175;23;20837;-77
2023/06/05 10:33:18;;;;;;;3.60;3.30;;;32.70;49.20;;;;;;6012980;23;20468;-76
2023/06/05 10:35:51;;;;;;;3.87;3.57;;;32.90;46.30;;;;;;6027830;23;20539;-78
2023/06/05 10:38:21;;;;;;;3.37;3.10;;;33.10;46.60;;;;;;6032423;23;20432;-79
2023/06/05 10:40:53;;;;;;;3.37;3.07;;;33.30;46.40;;;;;;6028492;23;20441;-80
2023/06/05 10:43:33;;;;;;;3.53;3.10;;;33.40;44.40;;;;;;6028750;23;20459;-77
2023/06/05 10:46:01;;;;;;;3.43;3.13;;;33.40;42.50;;;;;;6032365;23;20428;-78
2023/06/05 10:49:06;;;;;;;3.63;3.33;;;33.10;43.30;;;;;;6031383;23;20478;-78
2023/06/05 10:51:39;;;;;;;3.20;2.90;;;33.20;43.60;;;;;;6017378;23;21101;-77
2023/06/05 10:54:07;;;;;;;3.60;3.30;;;33.40;42.30;;;;;;6018006;23;20504;-78
2023/06/05 10:56:55;;;;;;;3.70;3.40;;;33.20;43.40;;;;;;6012639;23;20535;-78
2023/06/05 10:59:24;;;;;;;3.13;2.93;;;33.20;42.80;;;;;;6046201;23;20494;-79
2023/06/05 11:02:23;;;;;;;3.83;3.07;;;33.40;43.00;;;;;;6023278;23;20531;-79
2023/06/05 11:05:13;;;;;;;3.10;2.80;;;33.70;42.10;;;;;;6014386;23;20440;-79
2023/06/05 11:07:45;;;;;;;4.00;3.50;;;34.00;42.00;;;;;;6030272;23;20471;-78
2023/06/05 11:10:20;;;;;;;4.70;3.30;;;34.10;41.90;;;;;;6032876;23;20792;-78
2023/06/05 11:13:01;;;;;;;3.50;3.30;;;34.20;41.80;;;;;;6025611;23;20952;-79
2023/06/05 11:15:43;;;;;;;3.60;3.30;;;34.40;41.30;;;;;;6026155;23;20444;-78
2023/06/05 11:18:30;;;;;;;3.37;3.07;;;34.60;40.80;;;;;;6019362;23;20512;-77
2023/06/05 11:20:58;;;;;;;3.40;3.13;;;34.70;40.60;;;;;;6024532;23;20436;-78
2023/06/05 11:23:27;;;;;;;4.03;3.30;;;34.80;40.70;;;;;;6027964;23;20535;-78
2023/06/05 11:26:18;;;;;;;3.17;2.97;;;34.90;40.50;;;;;;6008961;23;20433;-79
2023/06/05 11:28:46;;;;;;;4.03;3.40;;;34.80;41.10;;;;;;6016279;23;20502;-74
2023/06/05 11:31:30;;;;;;;3.53;3.33;;;34.70;40.20;;;;;;6026898;23;21028;-77
2023/06/05 11:33:58;;;;;;;4.77;3.67;;;33.90;41.20;;;;;;6017139;23;20562;-77
2023/06/05 11:36:26;;;;;;;4.40;4.00;;;33.90;41.10;;;;;;6024723;23;20511;-77
2023/06/05 11:38:57;;;;;;;5.77;3.70;;;33.70;40.30;;;;;;6023314;23;20439;-78
2023/06/05 11:41:25;;;;;;;3.90;3.50;;;33.20;41.40;;;;;;6030461;23;20520;-77
2023/06/05 11:43:52;;;;;;;3.50;3.30;;;32.50;41.40;;;;;;6019072;23;20459;-77
2023/06/05 11:46:21;;;;;;;4.33;3.43;;;32.30;41.90;;;;;;6053594;23;20432;-77
2023/06/05 11:48:48;;;;;;;3.70;3.40;;;32.20;41.30;;;;;;6027951;23;20447;-78
2023/06/05 11:51:15;;;;;;;3.50;3.20;;;32.20;42.60;;;;;;6023874;23;20431;-77
2023/06/05 11:53:48;;;;;;;4.00;3.70;;;32.70;42.50;;;;;;6035840;23;20483;-77
2023/06/05 11:56:17;;;;;;;3.80;3.43;;;33.20;42.80;;;;;;6037878;23;20503;-78
2023/06/05 11:58:44;;;;;;;3.60;3.30;;;33.60;42.30;;;;;;6006139;23;20428;-76
2023/06/05 12:01:14;;;;;;;4.17;3.53;;;34.00;42.10;;;;;;6024156;23;20432;-76
2023/06/05 12:03:43;;;;;;;3.47;3.27;;;34.30;41.70;;;;;;6019451;23;21417;-76
2023/06/05 12:06:12;;;;;;;4.40;4.00;;;34.60;42.00;;;;;;6011154;23;20785;-77
2023/06/05 12:08:40;;;;;;;3.73;3.43;;;34.50;41.80;;;;;;6019831;23;20903;-76
2023/06/05 12:11:22;;;;;;;4.00;3.30;;;34.40;41.50;;;;;;6024377;23;20912;-76
2023/06/05 12:13:50;;;;;;;4.07;3.77;;;34.30;41.50;;;;;;6009045;23;20479;-76
2023/06/05 12:16:19;;;;;;;3.67;3.37;;;33.80;41.10;;;;;;6011225;23;20428;-77
2023/06/05 12:18:49;;;;;;;3.33;3.13;;;33.30;42.60;;;;;;6006482;23;20457;-77
2023/06/05 12:21:24;;;;;;;3.90;3.60;;;33.00;42.50;;;;;;6017848;23;20432;-76
2023/06/05 12:23:52;;;;;;;5.43;3.87;;;32.50;42.70;;;;;;6008057;23;20555;-76
2023/06/05 12:26:19;;;;;;;4.60;4.20;;;32.20;43.60;;;;;;6021113;23;20534;-76
2023/06/05 12:28:47;;;;;;;4.20;3.90;;;32.40;43.10;;;;;;6011396;23;20502;-76
2023/06/05 12:31:33;;;;;;;5.20;3.73;;;32.70;42.00;;;;;;6011110;23;20436;-76
2023/06/05 12:34:03;;;;;;;4.10;3.73;;;32.90;42.50;;;;;;6011928;23;20479;-76
2023/06/05 12:36:31;;;;;;;6.83;4.37;;;33.10;42.50;;;;;;6019449;23;20440;-76
2023/06/05 12:39:05;;;;;;;3.80;3.60;;;33.10;42.70;;;;;;6014110;23;20787;-76
2023/06/05 12:41:33;;;;;;;3.70;3.40;;;33.20;42.20;;;;;;6013629;23;20443;-76
2023/06/05 12:44:01;;;;;;;4.10;3.80;;;33.20;42.10;;;;;;6005484;23;20853;-76
2023/06/05 12:46:29;;;;;;;3.80;3.50;;;33.00;42.50;;;;;;6029147;23;20435;-76
2023/06/05 12:48:58;;;;;;;3.77;3.43;;;32.90;42.70;;;;;;6015005;23;20920;-76
2023/06/05 12:51:26;;;;;;;3.90;3.60;;;32.70;42.50;;;;;;6021575;23;20531;-76
2023/06/05 12:53:54;;;;;;;4.30;4.00;;;32.60;43.00;;;;;;6020895;23;20483;-78
2023/06/05 12:56:24;;;;;;;3.70;3.40;;;33.00;42.40;;;;;;6016521;23;20448;-76
2023/06/05 12:58:53;;;;;;;4.23;3.47;;;33.70;41.60;;;;;;6031278;23;20440;-77